Terminal Aerodrome Forecast
Issued by NWS

Home | Current Version | Previous Version | Text Only | Print | Product List | Glossary On
Versions: 1 2 3 4 5 6 7 8 9 10 11 12 13 14 15 16 17 18 19 20
000
FTUS46 KEKA 222335 CCA
TAFCEC
TAF COR
KCEC 222335Z 2300/2324 33011G16KT P6SM SCT035
     FM230200 34011KT P6SM BKN025 BKN030 OVC035
      TEMPO 2302/2304 SCT030 BKN035
     FM230400 33009KT 6SM BR FEW006 SCT012 BKN025
     FM230600 VRB04KT 5SM BR BKN006 OVC012
     FM231800 31010KT P6SM BKN012 OVC030
     FM232100 32012G17KT P6SM SCT012 BKN030=

USA.gov is the U.S. government's official web portal to all federal, state and local government web resources and services.